sensor_id;sensor_type;location;lat;lon;timestamp;pressure;altitude;pressure_sealevel;temperature
47484;BMP280;54076;50.322;18.650;2023-04-24T00:02:33;97013.17;;;9.35
47484;BMP280;54076;50.322;18.650;2023-04-24T00:07:34;97009.64;;;9.77
47484;BMP280;54076;50.322;18.650;2023-04-24T00:12:37;97009.70;;;10.07
47484;BMP280;54076;50.322;18.650;2023-04-24T00:17:38;97004.30;;;10.18
47484;BMP280;54076;50.322;18.650;2023-04-24T00:22:39;96999.93;;;10.38
47484;BMP280;54076;50.322;18.650;2023-04-24T00:27:40;96991.77;;;10.40
47484;BMP280;54076;50.322;18.650;2023-04-24T00:32:41;96978.98;;;10.38
47484;BMP280;54076;50.322;18.650;2023-04-24T00:37:43;96976.14;;;10.40
47484;BMP280;54076;50.322;18.650;2023-04-24T00:42:44;96974.39;;;10.43
47484;BMP280;54076;50.322;18.650;2023-04-24T00:47:46;96966.96;;;10.45
47484;BMP280;54076;50.322;18.650;2023-04-24T00:52:47;96963.44;;;10.41
47484;BMP280;54076;50.322;18.650;2023-04-24T00:57:48;96964.58;;;10.37
47484;BMP280;54076;50.322;18.650;2023-04-24T01:02:49;96961.66;;;10.35
47484;BMP280;54076;50.322;18.650;2023-04-24T01:07:52;96954.65;;;10.05
47484;BMP280;54076;50.322;18.650;2023-04-24T01:12:53;96948.98;;;10.04
47484;BMP280;54076;50.322;18.650;2023-04-24T01:17:54;96942.53;;;10.02
47484;BMP280;54076;50.322;18.650;2023-04-24T01:22:56;96941.61;;;10.01
47484;BMP280;54076;50.322;18.650;2023-04-24T01:27:58;96937.90;;;9.93
47484;BMP280;54076;50.322;18.650;2023-04-24T01:33:00;96931.44;;;9.86
47484;BMP280;54076;50.322;18.650;2023-04-24T01:38:01;96934.27;;;9.77
47484;BMP280;54076;50.322;18.650;2023-04-24T01:43:02;96929.19;;;9.74
47484;BMP280;54076;50.322;18.650;2023-04-24T01:48:04;96928.30;;;9.61
47484;BMP280;54076;50.322;18.650;2023-04-24T01:53:05;96925.48;;;9.55
47484;BMP280;54076;50.322;18.650;2023-04-24T01:58:06;96924.03;;;9.56
47484;BMP280;54076;50.322;18.650;2023-04-24T02:03:08;96922.95;;;9.54
47484;BMP280;54076;50.322;18.650;2023-04-24T02:08:09;96918.66;;;9.60
47484;BMP280;54076;50.322;18.650;2023-04-24T02:13:10;96917.34;;;9.55
47484;BMP280;54076;50.322;18.650;2023-04-24T02:18:11;96911.96;;;9.57
47484;BMP280;54076;50.322;18.650;2023-04-24T02:23:13;96906.77;;;9.71
47484;BMP280;54076;50.322;18.650;2023-04-24T02:28:17;96904.23;;;9.76
47484;BMP280;54076;50.322;18.650;2023-04-24T02:33:18;96910.67;;;9.75
47484;BMP280;54076;50.322;18.650;2023-04-24T02:38:19;96906.45;;;9.73
47484;BMP280;54076;50.322;18.650;2023-04-24T02:43:20;96899.98;;;9.62
47484;BMP280;54076;50.322;18.650;2023-04-24T02:48:21;96898.08;;;9.68
47484;BMP280;54076;50.322;18.650;2023-04-24T02:53:23;96898.30;;;9.78
47484;BMP280;54076;50.322;18.650;2023-04-24T02:58:24;96897.40;;;9.78
47484;BMP280;54076;50.322;18.650;2023-04-24T03:03:25;96894.90;;;9.71
47484;BMP280;54076;50.322;18.650;2023-04-24T03:08:26;96889.59;;;9.65
47484;BMP280;54076;50.322;18.650;2023-04-24T03:13:27;96884.19;;;9.61
47484;BMP280;54076;50.322;18.650;2023-04-24T03:18:28;96884.94;;;9.67
47484;BMP280;54076;50.322;18.650;2023-04-24T03:23:29;96885.13;;;9.62
47484;BMP280;54076;50.322;18.650;2023-04-24T03:28:30;96887.11;;;9.76
47484;BMP280;54076;50.322;18.650;2023-04-24T03:33:31;96881.75;;;9.58
47484;BMP280;54076;50.322;18.650;2023-04-24T03:38:32;96881.77;;;9.71
47484;BMP280;54076;50.322;18.650;2023-04-24T03:43:33;96879.91;;;9.80
47484;BMP280;54076;50.322;18.650;2023-04-24T03:48:35;96879.38;;;9.64
47484;BMP280;54076;50.322;18.650;2023-04-24T03:53:36;96878.56;;;9.68
47484;BMP280;54076;50.322;18.650;2023-04-24T03:58:37;96877.67;;;9.58
47484;BMP280;54076;50.322;18.650;2023-04-24T04:03:38;96879.52;;;9.60
47484;BMP280;54076;50.322;18.650;2023-04-24T04:08:39;96878.42;;;9.48
47484;BMP280;54076;50.322;18.650;2023-04-24T04:13:40;96875.59;;;9.54
47484;BMP280;54076;50.322;18.650;2023-04-24T04:18:41;96874.30;;;9.54
47484;BMP280;54076;50.322;18.650;2023-04-24T04:23:42;96879.19;;;9.67
47484;BMP280;54076;50.322;18.650;2023-04-24T04:28:43;96876.98;;;9.59
47484;BMP280;54076;50.322;18.650;2023-04-24T04:33:45;96881.02;;;9.56
47484;BMP280;54076;50.322;18.650;2023-04-24T04:38:46;96882.54;;;9.75
47484;BMP280;54076;50.322;18.650;2023-04-24T04:43:47;96878.48;;;9.77
47484;BMP280;54076;50.322;18.650;2023-04-24T04:48:48;96879.14;;;9.67
47484;BMP280;54076;50.322;18.650;2023-04-24T04:53:49;96876.34;;;9.63
47484;BMP280;54076;50.322;18.650;2023-04-24T04:58:50;96878.63;;;9.68
47484;BMP280;54076;50.322;18.650;2023-04-24T05:03:51;96876.50;;;9.69
47484;BMP280;54076;50.322;18.650;2023-04-24T05:08:52;96877.88;;;9.76
47484;BMP280;54076;50.322;18.650;2023-04-24T05:13:57;96881.32;;;10.15
47484;BMP280;54076;50.322;18.650;2023-04-24T05:18:58;96881.09;;;10.19
47484;BMP280;54076;50.322;18.650;2023-04-24T05:23:59;96881.38;;;10.34
47484;BMP280;54076;50.322;18.650;2023-04-24T05:29:00;96880.68;;;10.21
47484;BMP280;54076;50.322;18.650;2023-04-24T05:34:02;96880.39;;;10.41
47484;BMP280;54076;50.322;18.650;2023-04-24T05:39:03;96873.11;;;10.61
47484;BMP280;54076;50.322;18.650;2023-04-24T05:44:05;96876.00;;;10.71
47484;BMP280;54076;50.322;18.650;2023-04-24T05:49:06;96879.52;;;10.90
47484;BMP280;54076;50.322;18.650;2023-04-24T05:54:07;96876.59;;;11.14
47484;BMP280;54076;50.322;18.650;2023-04-24T05:59:08;96876.67;;;11.42
47484;BMP280;54076;50.322;18.650;2023-04-24T06:04:09;96875.20;;;11.66
47484;BMP280;54076;50.322;18.650;2023-04-24T06:09:10;96877.58;;;11.78
47484;BMP280;54076;50.322;18.650;2023-04-24T06:14:12;96874.40;;;11.76
47484;BMP280;54076;50.322;18.650;2023-04-24T06:19:13;96870.64;;;11.93
47484;BMP280;54076;50.322;18.650;2023-04-24T06:24:14;96868.40;;;12.32
47484;BMP280;54076;50.322;18.650;2023-04-24T06:29:17;96869.25;;;12.50
47484;BMP280;54076;50.322;18.650;2023-04-24T06:34:18;96866.65;;;12.83
47484;BMP280;54076;50.322;18.650;2023-04-24T06:39:19;96867.76;;;13.25
47484;BMP280;54076;50.322;18.650;2023-04-24T06:44:20;96872.98;;;13.54
47484;BMP280;54076;50.322;18.650;2023-04-24T06:49:21;96864.83;;;13.68
47484;BMP280;54076;50.322;18.650;2023-04-24T06:54:22;96860.10;;;13.89
47484;BMP280;54076;50.322;18.650;2023-04-24T06:59:24;96858.83;;;13.82
47484;BMP280;54076;50.322;18.650;2023-04-24T07:04:25;96859.96;;;13.84
47484;BMP280;54076;50.322;18.650;2023-04-24T07:09:26;96858.48;;;13.63
47484;BMP280;54076;50.322;18.650;2023-04-24T07:14:27;96851.15;;;13.79
47484;BMP280;54076;50.322;18.650;2023-04-24T07:19:28;96852.54;;;13.85
47484;BMP280;54076;50.322;18.650;2023-04-24T07:24:30;96850.55;;;13.63
47484;BMP280;54076;50.322;18.650;2023-04-24T07:29:33;96847.31;;;13.88
47484;BMP280;54076;50.322;18.650;2023-04-24T07:34:34;96841.01;;;14.06
47484;BMP280;54076;50.322;18.650;2023-04-24T07:39:35;96850.23;;;13.87
47484;BMP280;54076;50.322;18.650;2023-04-24T07:44:36;96849.70;;;14.11
47484;BMP280;54076;50.322;18.650;2023-04-24T07:49:37;96849.77;;;14.20
47484;BMP280;54076;50.322;18.650;2023-04-24T07:54:38;96848.89;;;14.17
47484;BMP280;54076;50.322;18.650;2023-04-24T07:59:39;96847.45;;;14.06
47484;BMP280;54076;50.322;18.650;2023-04-24T08:04:40;96844.09;;;14.12
47484;BMP280;54076;50.322;18.650;2023-04-24T08:09:41;96837.48;;;14.33
47484;BMP280;54076;50.322;18.650;2023-04-24T08:14:42;96834.64;;;14.01
47484;BMP280;54076;50.322;18.650;2023-04-24T08:19:43;96832.58;;;14.23
47484;BMP280;54076;50.322;18.650;2023-04-24T08:24:48;96831.19;;;14.45
47484;BMP280;54076;50.322;18.650;2023-04-24T08:29:50;96832.14;;;14.29
47484;BMP280;54076;50.322;18.650;2023-04-24T08:34:51;96830.69;;;14.47
47484;BMP280;54076;50.322;18.650;2023-04-24T08:39:53;96826.43;;;14.62
47484;BMP280;54076;50.322;18.650;2023-04-24T08:44:54;96825.36;;;15.06
47484;BMP280;54076;50.322;18.650;2023-04-24T08:49:56;96820.38;;;15.11
47484;BMP280;54076;50.322;18.650;2023-04-24T08:54:59;96818.92;;;15.23
47484;BMP280;54076;50.322;18.650;2023-04-24T09:00:01;96819.86;;;15.42
47484;BMP280;54076;50.322;18.650;2023-04-24T09:05:02;96813.90;;;15.74
47484;BMP280;54076;50.322;18.650;2023-04-24T09:10:05;96806.21;;;15.89
47484;BMP280;54076;50.322;18.650;2023-04-24T09:15:08;96812.84;;;15.50
47484;BMP280;54076;50.322;18.650;2023-04-24T09:20:10;96813.89;;;15.64
47484;BMP280;54076;50.322;18.650;2023-04-24T09:25:11;96812.41;;;15.78
47484;BMP280;54076;50.322;18.650;2023-04-24T09:30:13;96806.91;;;15.85
47484;BMP280;54076;50.322;18.650;2023-04-24T09:35:15;96803.48;;;15.99
47484;BMP280;54076;50.322;18.650;2023-04-24T09:40:18;96802.72;;;16.07
47484;BMP280;54076;50.322;18.650;2023-04-24T09:45:21;96802.11;;;15.59
47484;BMP280;54076;50.322;18.650;2023-04-24T09:50:22;96793.77;;;15.84
47484;BMP280;54076;50.322;18.650;2023-04-24T09:55:24;96793.73;;;16.43
47484;BMP280;54076;50.322;18.650;2023-04-24T10:00:31;96789.27;;;16.80
47484;BMP280;54076;50.322;18.650;2023-04-24T10:05:37;96792.88;;;17.40
47484;BMP280;54076;50.322;18.650;2023-04-24T10:10:42;96788.85;;;17.32
47484;BMP280;54076;50.322;18.650;2023-04-24T10:15:44;96778.27;;;17.20
47484;BMP280;54076;50.322;18.650;2023-04-24T10:20:45;96778.45;;;16.11
47484;BMP280;54076;50.322;18.650;2023-04-24T10:25:47;96772.36;;;15.72
47484;BMP280;54076;50.322;18.650;2023-04-24T10:30:50;96773.73;;;15.71
47484;BMP280;54076;50.322;18.650;2023-04-24T10:35:56;96783.69;;;15.63
47484;BMP280;54076;50.322;18.650;2023-04-24T10:41:12;96793.94;;;15.92
47484;BMP280;54076;50.322;18.650;2023-04-24T10:46:27;96784.55;;;15.76
47484;BMP280;54076;50.322;18.650;2023-04-24T10:51:52;96783.48;;;15.34
47484;BMP280;54076;50.322;18.650;2023-04-24T11:02:38;96779.57;;;14.92
47484;BMP280;54076;50.322;18.650;2023-04-24T11:08:15;96784.12;;;14.19
47484;BMP280;54076;50.322;18.650;2023-04-24T11:13:21;96790.10;;;14.19
47484;BMP280;54076;50.322;18.650;2023-04-24T11:18:22;96791.33;;;14.22
47484;BMP280;54076;50.322;18.650;2023-04-24T11:23:23;96796.51;;;13.95
47484;BMP280;54076;50.322;18.650;2023-04-24T11:28:24;96798.21;;;14.13
47484;BMP280;54076;50.322;18.650;2023-04-24T11:33:25;96800.73;;;14.55
47484;BMP280;54076;50.322;18.650;2023-04-24T11:38:27;96797.03;;;14.59
47484;BMP280;54076;50.322;18.650;2023-04-24T11:43:30;96800.66;;;14.50
47484;BMP280;54076;50.322;18.650;2023-04-24T11:48:34;96799.12;;;14.38
47484;BMP280;54076;50.322;18.650;2023-04-24T11:53:37;96799.14;;;14.12
47484;BMP280;54076;50.322;18.650;2023-04-24T11:58:38;96801.41;;;14.36
47484;BMP280;54076;50.322;18.650;2023-04-24T12:03:40;96794.79;;;14.27
47484;BMP280;54076;50.322;18.650;2023-04-24T12:08:46;96793.98;;;13.85
47484;BMP280;54076;50.322;18.650;2023-04-24T12:13:48;96790.98;;;13.78
47484;BMP280;54076;50.322;18.650;2023-04-24T12:18:51;96793.73;;;13.51
47484;BMP280;54076;50.322;18.650;2023-04-24T12:23:54;96788.01;;;13.40
47484;BMP280;54076;50.322;18.650;2023-04-24T12:29:01;96791.04;;;13.63
47484;BMP280;54076;50.322;18.650;2023-04-24T12:34:03;96789.77;;;13.55
47484;BMP280;54076;50.322;18.650;2023-04-24T12:39:17;96794.70;;;13.30
47484;BMP280;54076;50.322;18.650;2023-04-24T12:44:19;96797.42;;;13.38
47484;BMP280;54076;50.322;18.650;2023-04-24T12:49:20;96799.41;;;13.73
47484;BMP280;54076;50.322;18.650;2023-04-24T12:54:22;96798.77;;;13.88
47484;BMP280;54076;50.322;18.650;2023-04-24T12:59:23;96818.52;;;15.04
47484;BMP280;54076;50.322;18.650;2023-04-24T13:04:24;96806.67;;;15.60
47484;BMP280;54076;50.322;18.650;2023-04-24T13:09:25;96802.42;;;15.35
47484;BMP280;54076;50.322;18.650;2023-04-24T13:14:26;96794.45;;;15.03
47484;BMP280;54076;50.322;18.650;2023-04-24T13:19:27;96790.33;;;14.11
47484;BMP280;54076;50.322;18.650;2023-04-24T13:24:28;96795.35;;;13.74
47484;BMP280;54076;50.322;18.650;2023-04-24T13:29:30;96784.89;;;13.16
47484;BMP280;54076;50.322;18.650;2023-04-24T13:34:31;96776.74;;;13.01
47484;BMP280;54076;50.322;18.650;2023-04-24T13:39:32;96776.86;;;12.76
47484;BMP280;54076;50.322;18.650;2023-04-24T13:44:33;96771.98;;;12.53
47484;BMP280;54076;50.322;18.650;2023-04-24T13:49:34;96766.52;;;12.80
47484;BMP280;54076;50.322;18.650;2023-04-24T13:54:35;96762.84;;;12.73
47484;BMP280;54076;50.322;18.650;2023-04-24T13:59:36;96766.20;;;12.22
47484;BMP280;54076;50.322;18.650;2023-04-24T14:04:37;96757.23;;;11.78
47484;BMP280;54076;50.322;18.650;2023-04-24T14:09:38;96752.79;;;11.89
47484;BMP280;54076;50.322;18.650;2023-04-24T14:14:39;96749.42;;;11.89
47484;BMP280;54076;50.322;18.650;2023-04-24T14:19:40;96749.55;;;11.77
47484;BMP280;54076;50.322;18.650;2023-04-24T14:24:41;96749.20;;;11.58
47484;BMP280;54076;50.322;18.650;2023-04-24T14:29:42;96742.70;;;11.41
47484;BMP280;54076;50.322;18.650;2023-04-24T14:34:45;96743.11;;;11.71
47484;BMP280;54076;50.322;18.650;2023-04-24T14:39:46;96743.16;;;11.95
47484;BMP280;54076;50.322;18.650;2023-04-24T14:44:47;96749.87;;;11.85
47484;BMP280;54076;50.322;18.650;2023-04-24T14:49:48;96741.88;;;11.60
47484;BMP280;54076;50.322;18.650;2023-04-24T14:54:49;96739.11;;;11.34
47484;BMP280;54076;50.322;18.650;2023-04-24T14:59:50;96740.15;;;11.23
47484;BMP280;54076;50.322;18.650;2023-04-24T15:04:51;96737.81;;;11.36
47484;BMP280;54076;50.322;18.650;2023-04-24T15:09:52;96742.61;;;11.15
47484;BMP280;54076;50.322;18.650;2023-04-24T15:14:53;96744.18;;;10.69
47484;BMP280;54076;50.322;18.650;2023-04-24T15:19:54;96751.01;;;10.55
47484;BMP280;54076;50.322;18.650;2023-04-24T15:24:55;96745.48;;;10.43
47484;BMP280;54076;50.322;18.650;2023-04-24T15:29:56;96745.62;;;10.39
47484;BMP280;54076;50.322;18.650;2023-04-24T15:34:59;96750.25;;;10.42
47484;BMP280;54076;50.322;18.650;2023-04-24T15:40:00;96752.38;;;10.22
47484;BMP280;54076;50.322;18.650;2023-04-24T15:45:01;96756.11;;;10.32
47484;BMP280;54076;50.322;18.650;2023-04-24T15:50:03;96756.91;;;9.97
47484;BMP280;54076;50.322;18.650;2023-04-24T15:55:04;96754.77;;;9.86
47484;BMP280;54076;50.322;18.650;2023-04-24T16:00:06;96757.06;;;9.77
47484;BMP280;54076;50.322;18.650;2023-04-24T16:05:08;96762.17;;;9.56
47484;BMP280;54076;50.322;18.650;2023-04-24T16:10:09;96766.95;;;9.58
47484;BMP280;54076;50.322;18.650;2023-04-24T16:15:10;96771.01;;;9.52
47484;BMP280;54076;50.322;18.650;2023-04-24T16:20:13;96770.68;;;9.57
47484;BMP280;54076;50.322;18.650;2023-04-24T16:25:14;96771.59;;;9.35
47484;BMP280;54076;50.322;18.650;2023-04-24T16:30:15;96772.55;;;9.38
47484;BMP280;54076;50.322;18.650;2023-04-24T16:35:16;96770.40;;;9.23
47484;BMP280;54076;50.322;18.650;2023-04-24T16:40:18;96767.30;;;9.18
47484;BMP280;54076;50.322;18.650;2023-04-24T16:45:19;96763.04;;;9.19
47484;BMP280;54076;50.322;18.650;2023-04-24T16:50:20;96760.97;;;9.19
47484;BMP280;54076;50.322;18.650;2023-04-24T16:55:21;96761.88;;;9.25
47484;BMP280;54076;50.322;18.650;2023-04-24T17:00:24;96757.77;;;9.14
47484;BMP280;54076;50.322;18.650;2023-04-24T17:05:25;96758.53;;;9.26
47484;BMP280;54076;50.322;18.650;2023-04-24T17:10:26;96757.88;;;9.17
47484;BMP280;54076;50.322;18.650;2023-04-24T17:15:28;96754.02;;;9.11
47484;BMP280;54076;50.322;18.650;2023-04-24T17:20:29;96752.78;;;9.10
47484;BMP280;54076;50.322;18.650;2023-04-24T17:25:30;96760.00;;;9.09
47484;BMP280;54076;50.322;18.650;2023-04-24T17:30:31;96762.27;;;9.15
47484;BMP280;54076;50.322;18.650;2023-04-24T17:35:32;96770.73;;;9.12
47484;BMP280;54076;50.322;18.650;2023-04-24T17:40:33;96766.80;;;9.11
47484;BMP280;54076;50.322;18.650;2023-04-24T17:45:34;96775.30;;;9.09
47484;BMP280;54076;50.322;18.650;2023-04-24T17:50:37;96781.46;;;9.07
47484;BMP280;54076;50.322;18.650;2023-04-24T17:55:38;96784.08;;;9.07
47484;BMP280;54076;50.322;18.650;2023-04-24T18:00:40;96786.97;;;9.20
47484;BMP280;54076;50.322;18.650;2023-04-24T18:05:41;96791.06;;;9.11
47484;BMP280;54076;50.322;18.650;2023-04-24T18:10:42;96797.52;;;8.98
47484;BMP280;54076;50.322;18.650;2023-04-24T18:15:43;96804.13;;;8.93
47484;BMP280;54076;50.322;18.650;2023-04-24T18:20:45;96815.19;;;8.63
47484;BMP280;54076;50.322;18.650;2023-04-24T18:25:46;96820.30;;;8.35
47484;BMP280;54076;50.322;18.650;2023-04-24T18:30:47;96817.34;;;8.23
47484;BMP280;54076;50.322;18.650;2023-04-24T18:35:48;96819.09;;;8.16
47484;BMP280;54076;50.322;18.650;2023-04-24T18:40:49;96827.59;;;8.31
47484;BMP280;54076;50.322;18.650;2023-04-24T18:45:50;96836.17;;;8.34
47484;BMP280;54076;50.322;18.650;2023-04-24T18:50:51;96834.55;;;8.37
47484;BMP280;54076;50.322;18.650;2023-04-24T18:55:52;96836.83;;;8.37
47484;BMP280;54076;50.322;18.650;2023-04-24T19:00:53;96841.02;;;8.31
47484;BMP280;54076;50.322;18.650;2023-04-24T19:05:54;96837.96;;;8.18
47484;BMP280;54076;50.322;18.650;2023-04-24T19:10:55;96846.24;;;8.12
47484;BMP280;54076;50.322;18.650;2023-04-24T19:15:56;96842.29;;;7.95
47484;BMP280;54076;50.322;18.650;2023-04-24T19:20:57;96844.26;;;7.87
47484;BMP280;54076;50.322;18.650;2023-04-24T19:25:59;96844.05;;;7.95
47484;BMP280;54076;50.322;18.650;2023-04-24T19:31:00;96838.98;;;7.73
47484;BMP280;54076;50.322;18.650;2023-04-24T19:36:01;96843.63;;;7.66
47484;BMP280;54076;50.322;18.650;2023-04-24T19:41:02;96841.48;;;7.57
47484;BMP280;54076;50.322;18.650;2023-04-24T19:46:04;96845.58;;;7.57
47484;BMP280;54076;50.322;18.650;2023-04-24T19:51:05;96842.19;;;7.29
47484;BMP280;54076;50.322;18.650;2023-04-24T19:56:06;96843.16;;;7.36
47484;BMP280;54076;50.322;18.650;2023-04-24T20:01:08;96839.29;;;7.38
47484;BMP280;54076;50.322;18.650;2023-04-24T20:06:09;96845.48;;;7.39
47484;BMP280;54076;50.322;18.650;2023-04-24T20:11:10;96847.31;;;7.36
47484;BMP280;54076;50.322;18.650;2023-04-24T20:16:11;96847.08;;;7.06
47484;BMP280;54076;50.322;18.650;2023-04-24T20:21:12;96845.25;;;6.98
47484;BMP280;54076;50.322;18.650;2023-04-24T20:26:13;96861.11;;;6.90
47484;BMP280;54076;50.322;18.650;2023-04-24T20:31:14;96861.70;;;6.72
47484;BMP280;54076;50.322;18.650;2023-04-24T20:36:15;96863.19;;;6.69
47484;BMP280;54076;50.322;18.650;2023-04-24T20:41:16;96868.48;;;6.67
47484;BMP280;54076;50.322;18.650;2023-04-24T20:46:17;96880.51;;;6.75
47484;BMP280;54076;50.322;18.650;2023-04-24T20:51:18;96878.90;;;6.68
47484;BMP280;54076;50.322;18.650;2023-04-24T20:56:20;96882.84;;;6.63
47484;BMP280;54076;50.322;18.650;2023-04-24T21:01:21;96886.60;;;6.65
47484;BMP280;54076;50.322;18.650;2023-04-24T21:06:22;96889.59;;;6.54
47484;BMP280;54076;50.322;18.650;2023-04-24T21:11:23;96886.63;;;6.56
47484;BMP280;54076;50.322;18.650;2023-04-24T21:16:24;96889.17;;;6.61
47484;BMP280;54076;50.322;18.650;2023-04-24T21:21:25;96889.95;;;6.64
47484;BMP280;54076;50.322;18.650;2023-04-24T21:26:27;96894.52;;;6.55
47484;BMP280;54076;50.322;18.650;2023-04-24T21:31:28;96894.62;;;6.53
47484;BMP280;54076;50.322;18.650;2023-04-24T21:36:29;96896.54;;;6.61
47484;BMP280;54076;50.322;18.650;2023-04-24T21:41:30;96897.02;;;6.71
47484;BMP280;54076;50.322;18.650;2023-04-24T21:46:31;96899.09;;;6.68
47484;BMP280;54076;50.322;18.650;2023-04-24T21:51:32;96900.63;;;6.68
47484;BMP280;54076;50.322;18.650;2023-04-24T21:56:33;96896.97;;;6.54
47484;BMP280;54076;50.322;18.650;2023-04-24T22:01:34;96895.96;;;6.47
47484;BMP280;54076;50.322;18.650;2023-04-24T22:06:35;96895.72;;;6.58
47484;BMP280;54076;50.322;18.650;2023-04-24T22:11:37;96895.84;;;6.59
47484;BMP280;54076;50.322;18.650;2023-04-24T22:16:38;96891.45;;;6.60
47484;BMP280;54076;50.322;18.650;2023-04-24T22:21:41;96888.71;;;6.56
47484;BMP280;54076;50.322;18.650;2023-04-24T22:26:42;96892.04;;;6.48
47484;BMP280;54076;50.322;18.650;2023-04-24T22:31:44;96889.73;;;6.55
47484;BMP280;54076;50.322;18.650;2023-04-24T22:36:45;96885.43;;;6.65
47484;BMP280;54076;50.322;18.650;2023-04-24T22:48:32;96887.88;;;6.61
47484;BMP280;54076;50.322;18.650;2023-04-24T22:53:34;96889.95;;;6.72
47484;BMP280;54076;50.322;18.650;2023-04-24T22:58:36;96895.64;;;6.58
47484;BMP280;54076;50.322;18.650;2023-04-24T23:03:37;96893.20;;;6.65
47484;BMP280;54076;50.322;18.650;2023-04-24T23:08:38;96886.45;;;6.76
47484;BMP280;54076;50.322;18.650;2023-04-24T23:13:39;96876.05;;;6.70
47484;BMP280;54076;50.322;18.650;2023-04-24T23:18:40;96875.65;;;6.75
47484;BMP280;54076;50.322;18.650;2023-04-24T23:23:41;96881.90;;;6.74
47484;BMP280;54076;50.322;18.650;2023-04-24T23:28:42;96882.87;;;6.67
47484;BMP280;54076;50.322;18.650;2023-04-24T23:33:43;96881.11;;;6.73
47484;BMP280;54076;50.322;18.650;2023-04-24T23:38:44;96883.36;;;6.69
47484;BMP280;54076;50.322;18.650;2023-04-24T23:43:46;96883.20;;;6.70
47484;BMP280;54076;50.322;18.650;2023-04-24T23:48:47;96884.67;;;6.52
47484;BMP280;54076;50.322;18.650;2023-04-24T23:53:48;96886.45;;;6.60
47484;BMP280;54076;50.322;18.650;2023-04-24T23:58:49;96887.77;;;6.58
